sensor_id;sensor_type;location;lat;lon;timestamp;P1;durP1;ratioP1;P2;durP2;ratioP2
40527;SDS011;26230;51.268;6.534;2024-01-30T00:00:01;11.4;;;8.6;;
40527;SDS011;26230;51.268;6.534;2024-01-30T00:10:00;12.2;;;8.3;;
40527;SDS011;26230;51.268;6.534;2024-01-30T00:20:01;12.2;;;8.3;;
40527;SDS011;26230;51.268;6.534;2024-01-30T00:30:01;11.7;;;8.7;;
40527;SDS011;26230;51.268;6.534;2024-01-30T00:40:01;13.3;;;8.5;;
40527;SDS011;26230;51.268;6.534;2024-01-30T00:50:00;13.3;;;8.5;;
40527;SDS011;26230;51.268;6.534;2024-01-30T01:00:01;15.8;;;9.8;;
40527;SDS011;26230;51.268;6.534;2024-01-30T01:10:02;14.2;;;9.0;;
40527;SDS011;26230;51.268;6.534;2024-01-30T01:20:01;14.2;;;9.0;;
40527;SDS011;26230;51.268;6.534;2024-01-30T01:30:01;12.6;;;9.1;;
40527;SDS011;26230;51.268;6.534;2024-01-30T01:40:00;13.3;;;9.0;;
40527;SDS011;26230;51.268;6.534;2024-01-30T01:50:01;13.3;;;9.0;;
40527;SDS011;26230;51.268;6.534;2024-01-30T02:00:01;12.1;;;8.9;;
40527;SDS011;26230;51.268;6.534;2024-01-30T02:10:00;14.9;;;10.2;;
40527;SDS011;26230;51.268;6.534;2024-01-30T02:20:01;14.9;;;10.2;;
40527;SDS011;26230;51.268;6.534;2024-01-30T02:30:01;12.5;;;9.0;;
40527;SDS011;26230;51.268;6.534;2024-01-30T02:40:00;14.9;;;9.9;;
40527;SDS011;26230;51.268;6.534;2024-01-30T02:50:01;14.9;;;9.9;;
40527;SDS011;26230;51.268;6.534;2024-01-30T03:00:03;13.4;;;10.7;;
40527;SDS011;26230;51.268;6.534;2024-01-30T03:10:04;14.2;;;9.4;;
40527;SDS011;26230;51.268;6.534;2024-01-30T03:20:01;14.2;;;9.4;;
40527;SDS011;26230;51.268;6.534;2024-01-30T03:30:02;14.7;;;9.8;;
40527;SDS011;26230;51.268;6.534;2024-01-30T03:40:01;13.3;;;10.0;;
40527;SDS011;26230;51.268;6.534;2024-01-30T03:50:05;13.3;;;10.0;;
40527;SDS011;26230;51.268;6.534;2024-01-30T04:00:05;13.3;;;9.9;;
40527;SDS011;26230;51.268;6.534;2024-01-30T04:10:00;13.3;;;9.4;;
40527;SDS011;26230;51.268;6.534;2024-01-30T04:20:01;13.3;;;9.4;;
40527;SDS011;26230;51.268;6.534;2024-01-30T04:30:00;15.4;;;9.8;;
40527;SDS011;26230;51.268;6.534;2024-01-30T04:40:00;19.0;;;12.0;;
40527;SDS011;26230;51.268;6.534;2024-01-30T04:50:02;19.0;;;12.0;;
40527;SDS011;26230;51.268;6.534;2024-01-30T05:00:00;17.5;;;15.6;;
40527;SDS011;26230;51.268;6.534;2024-01-30T05:10:08;15.1;;;10.7;;
40527;SDS011;26230;51.268;6.534;2024-01-30T05:20:01;15.1;;;10.7;;
40527;SDS011;26230;51.268;6.534;2024-01-30T05:30:00;12.2;;;10.6;;
40527;SDS011;26230;51.268;6.534;2024-01-30T05:40:01;15.1;;;10.8;;
40527;SDS011;26230;51.268;6.534;2024-01-30T05:50:01;15.1;;;10.8;;
40527;SDS011;26230;51.268;6.534;2024-01-30T06:00:00;15.3;;;11.1;;
40527;SDS011;26230;51.268;6.534;2024-01-30T06:10:01;17.3;;;12.3;;
40527;SDS011;26230;51.268;6.534;2024-01-30T06:20:00;17.3;;;12.3;;
40527;SDS011;26230;51.268;6.534;2024-01-30T06:30:01;14.8;;;11.3;;
40527;SDS011;26230;51.268;6.534;2024-01-30T06:40:00;15.2;;;12.1;;
40527;SDS011;26230;51.268;6.534;2024-01-30T06:50:02;15.2;;;12.1;;
40527;SDS011;26230;51.268;6.534;2024-01-30T07:00:01;16.6;;;12.5;;
40527;SDS011;26230;51.268;6.534;2024-01-30T07:10:01;14.7;;;11.5;;
40527;SDS011;26230;51.268;6.534;2024-01-30T07:20:03;14.7;;;11.5;;
40527;SDS011;26230;51.268;6.534;2024-01-30T07:30:00;17.5;;;11.6;;
40527;SDS011;26230;51.268;6.534;2024-01-30T07:40:01;14.1;;;11.3;;
40527;SDS011;26230;51.268;6.534;2024-01-30T07:50:01;14.1;;;11.3;;
40527;SDS011;26230;51.268;6.534;2024-01-30T08:10:01;13.6;;;10.6;;
40527;SDS011;26230;51.268;6.534;2024-01-30T08:20:01;13.6;;;10.6;;
40527;SDS011;26230;51.268;6.534;2024-01-30T08:30:01;14.2;;;11.1;;
40527;SDS011;26230;51.268;6.534;2024-01-30T08:40:04;12.0;;;10.4;;
40527;SDS011;26230;51.268;6.534;2024-01-30T08:50:01;12.0;;;10.4;;
40527;SDS011;26230;51.268;6.534;2024-01-30T09:00:04;13.3;;;10.2;;
40527;SDS011;26230;51.268;6.534;2024-01-30T09:10:00;15.7;;;10.0;;
40527;SDS011;26230;51.268;6.534;2024-01-30T09:20:03;15.7;;;10.0;;
40527;SDS011;26230;51.268;6.534;2024-01-30T09:30:00;15.3;;;10.1;;
40527;SDS011;26230;51.268;6.534;2024-01-30T09:40:02;17.4;;;10.9;;
40527;SDS011;26230;51.268;6.534;2024-01-30T09:50:02;17.4;;;10.9;;
40527;SDS011;26230;51.268;6.534;2024-01-30T10:00:01;17.1;;;11.0;;
40527;SDS011;26230;51.268;6.534;2024-01-30T10:10:00;17.3;;;11.5;;
40527;SDS011;26230;51.268;6.534;2024-01-30T10:20:04;17.3;;;11.5;;
40527;SDS011;26230;51.268;6.534;2024-01-30T10:30:00;15.7;;;11.8;;
40527;SDS011;26230;51.268;6.534;2024-01-30T10:40:04;18.5;;;12.7;;
40527;SDS011;26230;51.268;6.534;2024-01-30T10:50:03;18.5;;;12.7;;
40527;SDS011;26230;51.268;6.534;2024-01-30T11:00:06;15.0;;;12.0;;
40527;SDS011;26230;51.268;6.534;2024-01-30T11:10:03;13.7;;;12.3;;
40527;SDS011;26230;51.268;6.534;2024-01-30T11:20:02;13.7;;;12.3;;
40527;SDS011;26230;51.268;6.534;2024-01-30T11:30:02;16.5;;;12.1;;
40527;SDS011;26230;51.268;6.534;2024-01-30T11:40:03;18.0;;;11.3;;
40527;SDS011;26230;51.268;6.534;2024-01-30T11:50:01;18.0;;;11.3;;
40527;SDS011;26230;51.268;6.534;2024-01-30T12:00:03;15.1;;;9.4;;
40527;SDS011;26230;51.268;6.534;2024-01-30T12:10:01;18.0;;;9.3;;
40527;SDS011;26230;51.268;6.534;2024-01-30T12:30:06;13.3;;;6.7;;
40527;SDS011;26230;51.268;6.534;2024-01-30T12:40:01;12.6;;;5.9;;
40527;SDS011;26230;51.268;6.534;2024-01-30T12:50:00;12.6;;;5.9;;
40527;SDS011;26230;51.268;6.534;2024-01-30T13:00:00;13.2;;;7.5;;
40527;SDS011;26230;51.268;6.534;2024-01-30T13:10:03;13.2;;;6.4;;
40527;SDS011;26230;51.268;6.534;2024-01-30T13:20:12;13.2;;;6.4;;
40527;SDS011;26230;51.268;6.534;2024-01-30T13:30:00;14.8;;;10.1;;
40527;SDS011;26230;51.268;6.534;2024-01-30T13:40:09;12.8;;;10.6;;
40527;SDS011;26230;51.268;6.534;2024-01-30T13:50:02;12.8;;;10.6;;
40527;SDS011;26230;51.268;6.534;2024-01-30T14:00:05;13.6;;;7.5;;
40527;SDS011;26230;51.268;6.534;2024-01-30T14:10:01;11.5;;;5.9;;
40527;SDS011;26230;51.268;6.534;2024-01-30T14:20:03;11.5;;;5.9;;
40527;SDS011;26230;51.268;6.534;2024-01-30T14:30:01;11.9;;;6.6;;
40527;SDS011;26230;51.268;6.534;2024-01-30T14:40:01;13.4;;;6.6;;
40527;SDS011;26230;51.268;6.534;2024-01-30T14:50:00;13.4;;;6.6;;
40527;SDS011;26230;51.268;6.534;2024-01-30T15:00:00;13.1;;;10.7;;
40527;SDS011;26230;51.268;6.534;2024-01-30T15:10:03;9.2;;;7.0;;
40527;SDS011;26230;51.268;6.534;2024-01-30T15:20:01;9.2;;;7.0;;
40527;SDS011;26230;51.268;6.534;2024-01-30T15:30:01;7.6;;;2.1;;
40527;SDS011;26230;51.268;6.534;2024-01-30T15:40:02;4.4;;;1.3;;
40527;SDS011;26230;51.268;6.534;2024-01-30T15:50:01;4.4;;;1.3;;
40527;SDS011;26230;51.268;6.534;2024-01-30T16:00:01;4.4;;;1.0;;
40527;SDS011;26230;51.268;6.534;2024-01-30T16:10:03;3.1;;;0.8;;
40527;SDS011;26230;51.268;6.534;2024-01-30T16:20:01;3.1;;;0.8;;
40527;SDS011;26230;51.268;6.534;2024-01-30T16:30:00;8.1;;;2.1;;
40527;SDS011;26230;51.268;6.534;2024-01-30T16:40:04;3.9;;;1.2;;
40527;SDS011;26230;51.268;6.534;2024-01-30T16:50:01;3.9;;;1.2;;
40527;SDS011;26230;51.268;6.534;2024-01-30T17:00:01;5.2;;;1.0;;
40527;SDS011;26230;51.268;6.534;2024-01-30T17:10:01;6.0;;;1.8;;
40527;SDS011;26230;51.268;6.534;2024-01-30T17:20:01;6.0;;;1.8;;
40527;SDS011;26230;51.268;6.534;2024-01-30T17:30:03;10.8;;;2.3;;
40527;SDS011;26230;51.268;6.534;2024-01-30T17:40:03;4.7;;;1.9;;
40527;SDS011;26230;51.268;6.534;2024-01-30T17:50:01;4.7;;;1.9;;
40527;SDS011;26230;51.268;6.534;2024-01-30T18:00:01;5.3;;;1.6;;
40527;SDS011;26230;51.268;6.534;2024-01-30T18:10:03;7.2;;;2.4;;
40527;SDS011;26230;51.268;6.534;2024-01-30T18:20:01;7.2;;;2.4;;
40527;SDS011;26230;51.268;6.534;2024-01-30T18:30:03;7.7;;;2.5;;
40527;SDS011;26230;51.268;6.534;2024-01-30T18:40:01;5.6;;;2.0;;
40527;SDS011;26230;51.268;6.534;2024-01-30T18:50:01;5.6;;;2.0;;
40527;SDS011;26230;51.268;6.534;2024-01-30T19:00:01;3.7;;;1.6;;
40527;SDS011;26230;51.268;6.534;2024-01-30T19:10:00;3.9;;;1.7;;
40527;SDS011;26230;51.268;6.534;2024-01-30T19:20:01;3.9;;;1.7;;
40527;SDS011;26230;51.268;6.534;2024-01-30T19:30:00;6.4;;;2.2;;
40527;SDS011;26230;51.268;6.534;2024-01-30T19:40:04;6.3;;;2.6;;
40527;SDS011;26230;51.268;6.534;2024-01-30T19:50:01;6.3;;;2.6;;
40527;SDS011;26230;51.268;6.534;2024-01-30T20:00:01;7.2;;;2.9;;
40527;SDS011;26230;51.268;6.534;2024-01-30T20:10:01;5.8;;;2.9;;
40527;SDS011;26230;51.268;6.534;2024-01-30T20:20:01;5.8;;;2.9;;
40527;SDS011;26230;51.268;6.534;2024-01-30T20:30:01;9.0;;;4.3;;
40527;SDS011;26230;51.268;6.534;2024-01-30T20:40:01;6.7;;;4.5;;
40527;SDS011;26230;51.268;6.534;2024-01-30T20:50:03;6.7;;;4.5;;
40527;SDS011;26230;51.268;6.534;2024-01-30T21:00:04;8.0;;;5.0;;
40527;SDS011;26230;51.268;6.534;2024-01-30T21:10:01;9.6;;;5.9;;
40527;SDS011;26230;51.268;6.534;2024-01-30T21:20:01;9.6;;;5.9;;
40527;SDS011;26230;51.268;6.534;2024-01-30T21:30:00;10.6;;;7.0;;
40527;SDS011;26230;51.268;6.534;2024-01-30T21:40:03;11.7;;;8.5;;
40527;SDS011;26230;51.268;6.534;2024-01-30T21:50:03;11.7;;;8.5;;
40527;SDS011;26230;51.268;6.534;2024-01-30T22:00:04;16.6;;;15.0;;
40527;SDS011;26230;51.268;6.534;2024-01-30T22:10:02;15.1;;;12.7;;
40527;SDS011;26230;51.268;6.534;2024-01-30T22:20:04;15.1;;;12.7;;
40527;SDS011;26230;51.268;6.534;2024-01-30T22:30:00;19.9;;;13.3;;
40527;SDS011;26230;51.268;6.534;2024-01-30T22:40:00;16.9;;;11.8;;
40527;SDS011;26230;51.268;6.534;2024-01-30T22:50:01;16.9;;;11.8;;
40527;SDS011;26230;51.268;6.534;2024-01-30T23:10:00;16.9;;;12.9;;
40527;SDS011;26230;51.268;6.534;2024-01-30T23:20:02;16.9;;;12.9;;
40527;SDS011;26230;51.268;6.534;2024-01-30T23:30:01;17.6;;;13.3;;
40527;SDS011;26230;51.268;6.534;2024-01-30T23:40:00;22.0;;;15.9;;
40527;SDS011;26230;51.268;6.534;2024-01-30T23:50:01;22.0;;;15.9;;
